createdAt,value
2023-11-29T00:00:54.656Z,75.11
2023-11-29T00:03:21.959Z,75.22
2023-11-29T00:05:49.424Z,74.76
2023-11-29T00:08:16.866Z,75.10
2023-11-29T00:10:44.572Z,74.65
2023-11-29T00:13:12.618Z,73.69
2023-11-29T00:15:40.446Z,73.80
2023-11-29T00:18:07.922Z,74.43
2023-11-29T00:20:35.433Z,74.46
2023-11-29T00:23:02.709Z,73.95
2023-11-29T00:25:30.156Z,73.28
2023-11-29T00:27:57.471Z,74.01
2023-11-29T00:30:24.915Z,73.59
2023-11-29T00:32:52.315Z,73.60
2023-11-29T00:35:19.802Z,73.81
2023-11-29T00:37:49.140Z,74.14
2023-11-29T00:40:16.791Z,74.14
2023-11-29T00:42:44.358Z,73.98
2023-11-29T00:45:12.555Z,73.46
2023-11-29T00:47:41.814Z,74.24
2023-11-29T00:50:10.100Z,73.92
2023-11-29T00:52:37.978Z,74.06
2023-11-29T00:55:06.899Z,73.52
2023-11-29T00:57:34.170Z,73.61
2023-11-29T01:00:01.469Z,73.37
2023-11-29T01:02:28.876Z,73.83
2023-11-29T01:04:57.109Z,75.22
2023-11-29T01:07:24.815Z,74.18
2023-11-29T01:09:52.333Z,74.22
2023-11-29T01:12:21.099Z,74.72
2023-11-29T01:14:49.190Z,75.62
2023-11-29T01:17:16.569Z,76.33
2023-11-29T01:19:46.306Z,76.50
2023-11-29T01:22:13.571Z,76.45
2023-11-29T01:24:41.153Z,76.92
2023-11-29T01:27:09.580Z,77.33
2023-11-29T01:29:36.955Z,77.44
2023-11-29T01:32:04.761Z,76.83
2023-11-29T01:34:32.258Z,77.22
2023-11-29T01:36:59.582Z,76.85
2023-11-29T01:39:27.743Z,77.25
2023-11-29T01:41:55.063Z,77.53
2023-11-29T01:44:22.443Z,77.81
2023-11-29T01:46:49.925Z,77.79
2023-11-29T01:49:20.434Z,78.20
2023-11-29T01:51:47.925Z,77.80
2023-11-29T01:54:15.186Z,77.71
2023-11-29T01:56:42.642Z,77.59
2023-11-29T01:59:10.082Z,78.13
2023-11-29T02:01:37.480Z,77.79
2023-11-29T02:04:05.705Z,78.65
2023-11-29T02:06:33.100Z,78.88
2023-11-29T02:09:00.369Z,78.49
2023-11-29T02:11:28.464Z,78.30
2023-11-29T02:13:55.712Z,78.65
2023-11-29T02:16:23.128Z,78.19
2023-11-29T02:18:50.485Z,77.92
2023-11-29T02:21:17.960Z,77.16
2023-11-29T02:23:53.087Z,76.81
2023-11-29T02:26:20.423Z,77.42
2023-11-29T02:28:47.749Z,77.42
2023-11-29T02:31:15.193Z,77.17
2023-11-29T02:33:42.495Z,76.82
2023-11-29T02:36:09.918Z,77.85
2023-11-29T02:38:37.318Z,77.50
2023-11-29T02:41:04.749Z,77.44
2023-11-29T02:43:32.090Z,77.39
2023-11-29T02:45:59.473Z,76.88
2023-11-29T02:48:26.789Z,76.66
2023-11-29T02:50:54.228Z,76.89
2023-11-29T02:53:21.589Z,77.08
2023-11-29T02:55:50.080Z,77.81
2023-11-29T02:58:17.693Z,77.09
2023-11-29T03:00:45.775Z,78.32
2023-11-29T03:03:13.138Z,77.26
2023-11-29T03:05:40.725Z,77.22
2023-11-29T03:08:09.357Z,77.34
2023-11-29T03:10:36.859Z,77.82
2023-11-29T03:13:04.297Z,77.54
2023-11-29T03:15:31.633Z,77.29
2023-11-29T03:17:58.977Z,78.15
2023-11-29T03:20:26.622Z,78.54
2023-11-29T03:22:54.110Z,77.77
2023-11-29T03:25:21.793Z,78.40
2023-11-29T03:27:49.052Z,78.95
2023-11-29T03:30:16.707Z,79.05
2023-11-29T03:32:44.466Z,78.73
2023-11-29T03:35:11.929Z,78.70
2023-11-29T03:37:39.389Z,78.45
2023-11-29T03:40:07.717Z,78.68
2023-11-29T03:42:35.785Z,79.52
2023-11-29T03:45:04.514Z,79.09
2023-11-29T03:47:31.861Z,79.26
2023-11-29T03:49:59.314Z,79.45
2023-11-29T03:52:26.659Z,79.21
2023-11-29T03:54:54.808Z,79.20
2023-11-29T03:57:22.168Z,79.42
2023-11-29T03:59:51.101Z,79.46
2023-11-29T04:02:18.639Z,79.28
2023-11-29T04:04:46.114Z,79.35
2023-11-29T04:07:14.008Z,79.30
2023-11-29T04:09:43.439Z,79.03
2023-11-29T04:12:11.919Z,79.15
2023-11-29T04:14:40.879Z,79.10
2023-11-29T04:17:08.474Z,78.91
2023-11-29T04:19:36.542Z,78.63
2023-11-29T04:22:04.186Z,78.84
2023-11-29T04:24:32.001Z,78.91
2023-11-29T04:26:59.487Z,79.42
2023-11-29T04:29:28.700Z,79.52
2023-11-29T04:31:56.194Z,79.45
2023-11-29T04:34:33.227Z,79.41
2023-11-29T04:37:04.325Z,79.69
2023-11-29T04:39:32.086Z,79.34
2023-11-29T04:41:59.436Z,79.84
2023-11-29T04:44:28.749Z,79.46
2023-11-29T04:46:56.238Z,79.99
2023-11-29T04:49:23.642Z,79.67
2023-11-29T04:51:51.137Z,80.22
2023-11-29T04:54:19.380Z,80.26
2023-11-29T04:56:47.068Z,79.95
2023-11-29T04:59:15.093Z,79.64
2023-11-29T05:01:42.623Z,79.66
2023-11-29T05:04:10.429Z,79.69
2023-11-29T05:06:38.375Z,79.47
2023-11-29T05:09:07.550Z,79.83
2023-11-29T05:11:35.858Z,79.88
2023-11-29T05:14:04.262Z,79.26
2023-11-29T05:16:32.293Z,79.11
2023-11-29T05:18:59.937Z,79.46
2023-11-29T05:21:28.830Z,79.80
2023-11-29T05:23:56.409Z,80.42
2023-11-29T05:26:24.423Z,80.50
2023-11-29T05:28:52.068Z,81.00
2023-11-29T05:31:19.777Z,81.33
2023-11-29T05:33:47.310Z,80.92
2023-11-29T05:36:15.612Z,80.54
2023-11-29T05:38:43.878Z,80.60
2023-11-29T05:41:14.527Z,81.16
2023-11-29T05:43:42.366Z,81.20
2023-11-29T05:46:10.011Z,81.01
2023-11-29T05:48:37.567Z,81.28
2023-11-29T05:51:06.063Z,81.42
2023-11-29T05:53:33.611Z,81.50
2023-11-29T05:56:01.250Z,81.69
2023-11-29T05:58:29.243Z,80.72
2023-11-29T06:00:56.887Z,80.41
2023-11-29T06:03:27.366Z,80.67
2023-11-29T06:05:55.640Z,80.00
2023-11-29T06:08:23.099Z,79.31
2023-11-29T06:10:50.600Z,80.24
2023-11-29T06:13:21.968Z,79.50
2023-11-29T06:15:50.887Z,79.06
2023-11-29T06:18:20.350Z,80.61
2023-11-29T06:20:48.678Z,80.03
2023-11-29T06:23:16.483Z,78.41
2023-11-29T06:25:52.067Z,79.79
2023-11-29T06:28:26.006Z,77.77
2023-11-29T06:30:55.757Z,77.03
2023-11-29T06:33:23.757Z,76.44
2023-11-29T06:35:52.308Z,79.46
2023-11-29T06:38:21.941Z,78.42
2023-11-29T06:40:54.470Z,78.08
2023-11-29T06:43:26.329Z,74.90
2023-11-29T06:45:54.390Z,76.06
2023-11-29T06:48:22.959Z,75.84
2023-11-29T06:50:50.775Z,75.64
2023-11-29T06:53:19.744Z,75.29
2023-11-29T06:55:51.311Z,76.17
2023-11-29T06:58:23.617Z,78.52
2023-11-29T07:00:54.822Z,74.80
2023-11-29T07:03:23.076Z,73.72
2023-11-29T07:05:52.462Z,72.81
2023-11-29T07:08:27.078Z,72.82
2023-11-29T07:10:59.661Z,73.97
2023-11-29T07:13:29.804Z,75.70
2023-11-29T07:15:58.590Z,75.27
2023-11-29T07:18:28.577Z,72.02
2023-11-29T07:20:59.930Z,68.70
2023-11-29T07:23:31.620Z,65.72
2023-11-29T07:26:05.257Z,62.70
2023-11-29T07:28:33.491Z,63.68
2023-11-29T07:31:08.444Z,62.24
2023-11-29T07:33:37.227Z,61.93
2023-11-29T07:36:12.099Z,60.64
2023-11-29T07:38:43.795Z,59.55
2023-11-29T07:41:12.505Z,58.65
2023-11-29T07:43:41.675Z,59.56
2023-11-29T07:46:15.217Z,59.66
2023-11-29T07:48:43.671Z,66.25
2023-11-29T07:51:11.690Z,68.62
2023-11-29T07:53:39.614Z,68.84
2023-11-29T07:56:08.881Z,71.24
2023-11-29T07:58:37.431Z,73.34
2023-11-29T08:01:07.038Z,72.31
2023-11-29T08:03:37.096Z,72.53
2023-11-29T08:06:05.022Z,73.85
2023-11-29T08:08:32.545Z,74.27
2023-11-29T08:11:02.377Z,72.74
2023-11-29T08:13:30.309Z,73.21
2023-11-29T08:15:58.814Z,72.88
2023-11-29T08:18:32.711Z,72.15
2023-11-29T08:21:00.872Z,73.03
2023-11-29T08:23:36.814Z,72.55
2023-11-29T08:26:06.950Z,72.64
2023-11-29T08:28:34.877Z,71.37
2023-11-29T08:31:02.497Z,71.12
2023-11-29T08:33:35.008Z,71.54
2023-11-29T08:36:05.062Z,72.53
2023-11-29T08:38:33.612Z,72.63
2023-11-29T08:41:01.970Z,72.53
2023-11-29T08:43:29.852Z,71.65
2023-11-29T08:45:58.047Z,72.33
2023-11-29T08:48:26.093Z,70.47
2023-11-29T08:50:55.075Z,72.33
2023-11-29T08:53:32.930Z,71.10
2023-11-29T08:56:18.318Z,70.94
2023-11-29T09:02:12.238Z,70.64
2023-11-29T09:04:41.918Z,70.08
2023-11-29T09:07:12.510Z,69.61
2023-11-29T09:09:46.964Z,69.90
2023-11-29T09:12:19.627Z,70.39
2023-11-29T09:14:47.552Z,70.23
2023-11-29T09:17:18.768Z,70.26
2023-11-29T09:19:47.008Z,70.78
2023-11-29T09:22:15.178Z,70.75
2023-11-29T09:24:42.928Z,70.69
2023-11-29T09:27:13.209Z,70.59
2023-11-29T09:29:43.685Z,70.91
2023-11-29T09:32:11.412Z,71.00
2023-11-29T09:34:38.960Z,70.49
2023-11-29T09:37:06.449Z,70.12
2023-11-29T09:39:33.929Z,71.30
2023-11-29T09:42:07.324Z,70.98
2023-11-29T09:44:37.696Z,70.62
2023-11-29T09:47:07.292Z,71.31
2023-11-29T09:49:36.319Z,69.39
2023-11-29T09:52:05.249Z,68.46
2023-11-29T09:54:35.549Z,68.73
2023-11-29T09:57:04.727Z,69.03
2023-11-29T09:59:34.355Z,68.74
2023-11-29T10:02:07.955Z,67.20
2023-11-29T10:04:41.673Z,67.82
2023-11-29T10:07:11.242Z,68.49
2023-11-29T10:09:39.945Z,69.01
2023-11-29T10:12:14.319Z,68.90
2023-11-29T10:14:43.254Z,68.79
2023-11-29T10:17:15.300Z,67.46
2023-11-29T10:19:44.734Z,66.82
2023-11-29T10:22:17.845Z,66.86
2023-11-29T10:24:46.524Z,65.99
2023-11-29T10:27:15.275Z,66.39
2023-11-29T10:29:43.336Z,67.17
2023-11-29T10:32:14.473Z,66.98
2023-11-29T10:34:44.033Z,67.62
2023-11-29T10:37:12.477Z,67.03
2023-11-29T10:39:40.101Z,68.47
2023-11-29T10:42:12.088Z,68.70
2023-11-29T10:44:40.424Z,69.24
2023-11-29T10:47:21.198Z,69.05
2023-11-29T10:49:50.934Z,68.91
2023-11-29T10:52:21.308Z,68.24
2023-11-29T10:54:49.525Z,68.43
2023-11-29T10:57:24.268Z,67.67
2023-11-29T10:59:57.680Z,68.60
2023-11-29T11:02:29.988Z,68.17
2023-11-29T11:05:12.460Z,66.74
2023-11-29T11:07:52.310Z,67.68
2023-11-29T11:10:42.775Z,68.01
2023-11-29T11:13:38.045Z,68.76
2023-11-29T11:16:29.288Z,68.19
2023-11-29T11:19:11.421Z,67.88
2023-11-29T11:21:44.723Z,68.36
2023-11-29T11:24:13.963Z,67.39
2023-11-29T11:30:29.761Z,67.16
2023-11-29T11:32:59.556Z,67.28
2023-11-29T11:35:36.115Z,67.29
2023-11-29T11:38:09.177Z,66.40
2023-11-29T11:40:39.615Z,67.40
2023-11-29T11:43:08.442Z,68.50
2023-11-29T11:45:38.571Z,69.38
2023-11-29T11:48:07.470Z,69.52
2023-11-29T11:50:35.314Z,69.17
2023-11-29T11:53:04.956Z,68.83
2023-11-29T11:55:35.518Z,69.66
2023-11-29T11:58:21.572Z,69.99
2023-11-29T12:00:55.225Z,70.12
2023-11-29T12:03:24.160Z,69.36
2023-11-29T12:05:56.118Z,69.58
2023-11-29T12:08:24.415Z,69.71
2023-11-29T12:10:52.313Z,70.28
2023-11-29T12:13:22.861Z,70.12
2023-11-29T12:15:50.501Z,69.64
2023-11-29T12:18:19.436Z,68.96
2023-11-29T12:20:49.632Z,69.55
2023-11-29T12:23:31.455Z,68.50
2023-11-29T12:25:59.512Z,67.45
2023-11-29T12:28:29.964Z,66.24
2023-11-29T12:31:00.203Z,66.25
2023-11-29T12:33:35.765Z,67.52
2023-11-29T12:36:05.292Z,67.94
2023-11-29T12:38:34.658Z,69.16
2023-11-29T12:41:02.749Z,69.13
2023-11-29T12:43:30.949Z,69.77
2023-11-29T12:46:00.775Z,70.60
2023-11-29T12:48:30.823Z,70.13
2023-11-29T12:51:29.039Z,69.81
2023-11-29T12:54:17.024Z,68.89
2023-11-29T12:56:49.944Z,68.96
2023-11-29T12:59:21.182Z,68.55
2023-11-29T13:01:50.003Z,68.94
2023-11-29T13:04:17.618Z,68.64
2023-11-29T13:06:45.060Z,68.81
2023-11-29T13:09:13.446Z,68.68
2023-11-29T13:11:41.403Z,68.74
2023-11-29T13:14:08.842Z,68.08
2023-11-29T13:16:37.829Z,68.17
2023-11-29T13:19:05.253Z,68.74
2023-11-29T13:21:34.162Z,68.16
2023-11-29T13:24:02.291Z,68.15
2023-11-29T13:26:29.794Z,68.43
2023-11-29T13:28:59.081Z,68.29
2023-11-29T13:31:27.153Z,68.40
2023-11-29T13:33:56.800Z,69.23
2023-11-29T13:36:25.485Z,68.88
2023-11-29T13:38:53.156Z,69.11
2023-11-29T13:41:20.650Z,69.25
2023-11-29T13:43:56.779Z,70.06
2023-11-29T13:46:27.580Z,69.41
2023-11-29T13:48:55.255Z,69.47
2023-11-29T13:51:22.872Z,68.85
2023-11-29T13:53:50.542Z,68.99
2023-11-29T13:56:18.301Z,68.77
2023-11-29T13:58:47.190Z,69.17
2023-11-29T14:01:14.782Z,69.40
2023-11-29T14:03:44.558Z,69.64
2023-11-29T14:06:13.540Z,69.93
2023-11-29T14:08:43.251Z,70.25
2023-11-29T14:11:11.204Z,70.56
2023-11-29T14:13:38.887Z,70.27
2023-11-29T14:16:06.789Z,70.25
2023-11-29T14:18:34.502Z,70.97
2023-11-29T14:21:02.364Z,71.40
2023-11-29T14:23:29.845Z,71.08
2023-11-29T14:25:57.477Z,71.29
2023-11-29T14:28:24.893Z,71.79
2023-11-29T14:30:52.606Z,71.80
2023-11-29T14:33:20.078Z,71.86
2023-11-29T14:35:48.049Z,72.03
2023-11-29T14:38:15.721Z,72.08
2023-11-29T14:40:43.110Z,72.47
2023-11-29T14:43:10.476Z,72.48
2023-11-29T14:45:38.132Z,72.31
2023-11-29T14:48:05.741Z,72.36
2023-11-29T14:50:33.517Z,73.00
2023-11-29T14:53:01.164Z,73.16
2023-11-29T14:55:28.918Z,73.23
2023-11-29T14:57:56.305Z,73.51
2023-11-29T15:00:23.902Z,73.60
2023-11-29T15:02:51.532Z,73.62
2023-11-29T15:05:19.146Z,73.68
2023-11-29T15:07:46.559Z,73.70
2023-11-29T15:10:13.934Z,74.01
2023-11-29T15:12:41.519Z,74.25
2023-11-29T15:15:09.521Z,74.65
2023-11-29T15:17:37.296Z,74.80
2023-11-29T15:20:06.453Z,74.90
2023-11-29T15:22:35.098Z,75.40
2023-11-29T15:25:11.154Z,75.19
2023-11-29T15:27:45.003Z,75.36
2023-11-29T15:30:13.143Z,75.65
2023-11-29T15:32:40.628Z,75.89
2023-11-29T15:35:09.239Z,76.01
2023-11-29T15:37:37.241Z,75.91
2023-11-29T15:40:05.717Z,76.07
2023-11-29T15:42:33.169Z,75.81
2023-11-29T15:45:00.652Z,75.41
2023-11-29T15:47:28.202Z,75.70
2023-11-29T15:49:55.631Z,75.44
2023-11-29T15:52:23.197Z,75.42
2023-11-29T15:54:50.628Z,75.54
2023-11-29T15:57:20.182Z,75.51
2023-11-29T15:59:50.564Z,76.10
2023-11-29T16:02:17.979Z,76.24
2023-11-29T16:04:45.643Z,76.34
2023-11-29T16:07:13.223Z,76.29
2023-11-29T16:09:40.931Z,76.08
2023-11-29T16:12:08.834Z,75.98
2023-11-29T16:14:36.164Z,75.86
2023-11-29T16:17:04.541Z,76.11
2023-11-29T16:19:32.580Z,76.28
2023-11-29T16:22:00.045Z,76.03
2023-11-29T16:24:27.463Z,76.53
2023-11-29T16:26:55.640Z,76.82
2023-11-29T16:29:23.063Z,76.99
2023-11-29T16:31:50.482Z,76.98
2023-11-29T16:34:17.930Z,77.07
2023-11-29T16:36:46.421Z,77.26
2023-11-29T16:39:13.846Z,77.67
2023-11-29T16:41:41.862Z,76.94
2023-11-29T16:44:09.326Z,76.62
2023-11-29T16:46:36.877Z,76.32
2023-11-29T16:49:05.449Z,76.89
2023-11-29T16:51:33.234Z,76.97
2023-11-29T16:54:00.727Z,77.53
2023-11-29T16:56:28.274Z,77.25
2023-11-29T16:58:55.784Z,77.22
2023-11-29T17:01:24.036Z,78.04
2023-11-29T17:03:53.984Z,78.36
2023-11-29T17:06:22.164Z,77.90
2023-11-29T17:08:50.938Z,78.00
2023-11-29T17:11:18.487Z,77.98
2023-11-29T17:13:45.880Z,78.22
2023-11-29T17:16:13.381Z,78.17
2023-11-29T17:18:40.795Z,77.32
2023-11-29T17:21:08.837Z,77.18
2023-11-29T17:23:36.206Z,77.75
2023-11-29T17:26:04.496Z,78.58
2023-11-29T17:28:31.879Z,78.44
2023-11-29T17:30:59.581Z,79.02
2023-11-29T17:33:27.311Z,78.59
2023-11-29T17:35:55.802Z,78.58
2023-11-29T17:38:23.170Z,79.25
2023-11-29T17:40:51.813Z,79.68
2023-11-29T17:43:19.135Z,79.31
2023-11-29T17:45:51.739Z,79.69
2023-11-29T17:48:20.024Z,79.58
2023-11-29T17:50:47.353Z,78.93
2023-11-29T17:53:14.769Z,79.04
2023-11-29T17:55:42.384Z,79.39
2023-11-29T17:58:09.949Z,79.75
2023-11-29T18:00:37.326Z,79.20
2023-11-29T18:03:05.466Z,79.44
2023-11-29T18:05:32.802Z,79.69
2023-11-29T18:08:00.247Z,80.00
2023-11-29T18:10:27.739Z,79.97
2023-11-29T18:12:55.176Z,80.37
2023-11-29T18:15:22.534Z,80.54
2023-11-29T18:17:50.304Z,80.20
2023-11-29T18:20:17.710Z,79.88
2023-11-29T18:22:45.403Z,79.20
2023-11-29T18:25:12.829Z,79.55
2023-11-29T18:27:40.255Z,80.01
2023-11-29T18:30:08.372Z,80.38
2023-11-29T18:32:35.987Z,79.96
2023-11-29T18:35:03.757Z,79.73
2023-11-29T18:37:31.140Z,79.96
2023-11-29T18:39:58.695Z,78.77
2023-11-29T18:42:26.146Z,78.52
2023-11-29T18:44:53.514Z,78.43
2023-11-29T18:47:20.969Z,78.98
2023-11-29T18:49:48.373Z,79.13
2023-11-29T18:52:15.718Z,78.90
2023-11-29T18:54:43.250Z,78.93
2023-11-29T18:57:11.125Z,78.94
2023-11-29T18:59:42.624Z,79.07
2023-11-29T19:02:10.984Z,79.04
2023-11-29T19:04:38.694Z,79.06
2023-11-29T19:07:06.273Z,78.94
2023-11-29T19:09:33.652Z,78.69
2023-11-29T19:12:02.456Z,78.32
2023-11-29T19:14:29.784Z,79.27
2023-11-29T19:16:58.979Z,79.71
2023-11-29T19:19:26.337Z,79.69
2023-11-29T19:21:53.750Z,80.01
2023-11-29T19:24:21.433Z,80.38
2023-11-29T19:26:48.921Z,80.47
2023-11-29T19:29:16.297Z,80.38
2023-11-29T19:31:47.375Z,80.17
2023-11-29T19:34:15.586Z,80.55
2023-11-29T19:36:42.979Z,80.38
2023-11-29T19:39:10.528Z,79.67
2023-11-29T19:41:37.878Z,80.34
2023-11-29T19:44:05.308Z,80.62
2023-11-29T19:46:32.754Z,80.54
2023-11-29T19:49:00.974Z,81.20
2023-11-29T19:51:28.317Z,81.00
2023-11-29T19:53:55.682Z,80.56
2023-11-29T19:56:23.029Z,80.50
2023-11-29T19:58:50.439Z,80.66
2023-11-29T20:01:18.036Z,80.89
2023-11-29T20:03:45.503Z,80.66
2023-11-29T20:06:22.074Z,80.74
2023-11-29T20:08:55.833Z,81.11
2023-11-29T20:11:23.312Z,81.30
2023-11-29T20:13:50.691Z,81.34
2023-11-29T20:16:18.072Z,81.49
2023-11-29T20:18:45.922Z,81.28
2023-11-29T20:21:13.473Z,81.25
2023-11-29T20:23:41.698Z,81.37
2023-11-29T20:26:09.008Z,81.23
2023-11-29T20:28:36.366Z,81.29
2023-11-29T20:31:06.684Z,81.25
2023-11-29T20:33:34.119Z,81.22
2023-11-29T20:36:01.621Z,81.88
2023-11-29T20:38:29.081Z,81.95
2023-11-29T20:40:56.526Z,81.56
2023-11-29T20:43:23.964Z,81.88
2023-11-29T20:45:51.361Z,82.17
2023-11-29T20:48:18.750Z,82.06
2023-11-29T20:50:46.186Z,82.10
2023-11-29T20:53:18.649Z,81.94
2023-11-29T20:55:51.006Z,81.77
2023-11-29T20:58:22.159Z,82.17
2023-11-29T21:00:50.280Z,82.21
2023-11-29T21:03:17.933Z,81.82
2023-11-29T21:05:45.592Z,81.29
2023-11-29T21:08:12.930Z,81.12
2023-11-29T21:10:40.320Z,81.21
2023-11-29T21:13:09.614Z,81.73
2023-11-29T21:15:38.873Z,82.24
2023-11-29T21:18:06.367Z,82.30
2023-11-29T21:20:34.810Z,82.64
2023-11-29T21:23:02.200Z,83.14
2023-11-29T21:25:29.628Z,82.89
2023-11-29T21:27:56.994Z,82.75
2023-11-29T21:30:24.393Z,83.02
2023-11-29T21:32:52.044Z,82.78
2023-11-29T21:35:19.549Z,82.31
2023-11-29T21:37:46.854Z,81.71
2023-11-29T21:40:14.486Z,82.22
2023-11-29T21:42:41.862Z,82.24
2023-11-29T21:45:09.944Z,81.91
2023-11-29T21:47:38.131Z,81.83
2023-11-29T21:50:07.227Z,81.17
2023-11-29T21:52:34.577Z,81.42
2023-11-29T21:55:01.916Z,81.35
2023-11-29T21:57:29.269Z,81.27
2023-11-29T21:59:56.782Z,81.38
2023-11-29T22:02:24.283Z,81.37
2023-11-29T22:04:51.714Z,81.47
2023-11-29T22:07:19.057Z,81.54
2023-11-29T22:09:46.409Z,81.74
2023-11-29T22:12:13.746Z,81.86
2023-11-29T22:14:41.526Z,82.10
2023-11-29T22:17:08.859Z,82.43
2023-11-29T22:19:37.182Z,82.07
2023-11-29T22:22:04.796Z,82.02
2023-11-29T22:24:32.667Z,82.21
2023-11-29T22:27:00.391Z,81.43
2023-11-29T22:29:28.456Z,81.35
2023-11-29T22:31:55.846Z,82.07
2023-11-29T22:34:23.320Z,82.61
2023-11-29T22:36:50.715Z,82.78
2023-11-29T22:39:18.242Z,82.77
2023-11-29T22:41:45.590Z,82.98
2023-11-29T22:44:13.073Z,82.54
2023-11-29T22:46:41.121Z,81.96
2023-11-29T22:49:09.006Z,82.07
2023-11-29T22:51:37.322Z,83.11
2023-11-29T22:54:05.665Z,83.16
2023-11-29T22:56:36.967Z,83.03
2023-11-29T22:59:07.832Z,83.41
2023-11-29T23:01:35.536Z,83.53
2023-11-29T23:04:03.895Z,83.43
2023-11-29T23:06:32.734Z,83.40
2023-11-29T23:09:00.825Z,83.05
2023-11-29T23:11:28.259Z,83.04
2023-11-29T23:13:55.840Z,83.39
2023-11-29T23:16:23.386Z,83.21
2023-11-29T23:18:50.850Z,83.42
2023-11-29T23:21:18.418Z,83.14
2023-11-29T23:23:46.910Z,82.85
2023-11-29T23:26:14.375Z,82.98
2023-11-29T23:28:41.727Z,82.61
2023-11-29T23:31:09.366Z,82.80
2023-11-29T23:33:36.989Z,82.93
2023-11-29T23:36:07.950Z,82.91
2023-11-29T23:38:35.544Z,83.00
2023-11-29T23:41:02.869Z,82.66
2023-11-29T23:43:30.360Z,83.14
2023-11-29T23:45:57.744Z,83.45
2023-11-29T23:48:25.247Z,83.88
2023-11-29T23:50:52.621Z,83.89
2023-11-29T23:53:20.032Z,84.10
2023-11-29T23:55:47.359Z,83.50
2023-11-29T23:58:14.768Z,83.99
